Weather at Aerodromo da Pedra da Broa

Public forecast

Using degrees Celsius for public forecast. Weather courtesy of forecast.io.

Closest aviation weather report (METAR) to Aerodromo da Pedra da Broa

Report is more than 6 hours old.

Closest report is Ovar Air Base, 22.0 nm (40.7 km) WNW. Retrieved 2022/07/01 20:00 UTC (7 hours ago):

LPOV 012000Z 34009KT CAVOK 16/15 Q1016

Closest aviation forecast (TAF) to Aerodromo da Pedra da Broa

Forecast is more than 6 hours old.

Closest forecast is Ovar Air Base, 22.0 nm (40.7 km) WNW. Retrieved 2022/07/01 18:12 UTC (9 hours ago):

TAF LPOV 011700Z 0118/0218 34015KT CAVOK BECMG 0121/0123 VRB02KT PROB30 0203/0207 4000 BR BKN004 BECMG 0211/0213 33008KT